sensor_id;sensor_type;location;lat;lon;timestamp;temperature;humidity
19555;DHT22;9924;50.828;6.440;2023-07-20T00:01:26;17.00;99.90
19555;DHT22;9924;50.828;6.440;2023-07-20T00:03:52;17.00;99.90
19555;DHT22;9924;50.828;6.440;2023-07-20T00:06:22;17.00;99.90
19555;DHT22;9924;50.828;6.440;2023-07-20T00:08:48;17.00;99.90
19555;DHT22;9924;50.828;6.440;2023-07-20T00:11:15;17.00;99.90
19555;DHT22;9924;50.828;6.440;2023-07-20T00:13:40;17.00;99.90
19555;DHT22;9924;50.828;6.440;2023-07-20T00:16:07;17.00;99.90
19555;DHT22;9924;50.828;6.440;2023-07-20T00:18:32;17.00;99.90
19555;DHT22;9924;50.828;6.440;2023-07-20T00:21:01;17.00;99.90
19555;DHT22;9924;50.828;6.440;2023-07-20T00:23:34;16.90;99.90
19555;DHT22;9924;50.828;6.440;2023-07-20T00:26:00;16.90;99.90
19555;DHT22;9924;50.828;6.440;2023-07-20T00:28:27;16.90;99.90
19555;DHT22;9924;50.828;6.440;2023-07-20T00:30:52;16.80;99.90
19555;DHT22;9924;50.828;6.440;2023-07-20T00:33:18;16.80;99.90
19555;DHT22;9924;50.828;6.440;2023-07-20T00:35:44;16.70;99.90
19555;DHT22;9924;50.828;6.440;2023-07-20T00:38:10;16.70;99.90
19555;DHT22;9924;50.828;6.440;2023-07-20T00:40:37;16.70;99.90
19555;DHT22;9924;50.828;6.440;2023-07-20T00:43:03;16.60;99.90
19555;DHT22;9924;50.828;6.440;2023-07-20T00:45:29;16.50;99.90
19555;DHT22;9924;50.828;6.440;2023-07-20T00:47:55;16.50;99.90
19555;DHT22;9924;50.828;6.440;2023-07-20T00:50:22;16.40;99.90
19555;DHT22;9924;50.828;6.440;2023-07-20T00:52:49;16.40;99.90
19555;DHT22;9924;50.828;6.440;2023-07-20T00:55:15;16.30;99.90
19555;DHT22;9924;50.828;6.440;2023-07-20T00:57:41;16.30;99.90
19555;DHT22;9924;50.828;6.440;2023-07-20T01:00:07;16.20;99.90
19555;DHT22;9924;50.828;6.440;2023-07-20T01:02:33;16.20;99.90
19555;DHT22;9924;50.828;6.440;2023-07-20T01:04:59;16.20;99.90
19555;DHT22;9924;50.828;6.440;2023-07-20T01:08:00;16.20;99.90
19555;DHT22;9924;50.828;6.440;2023-07-20T01:10:39;16.20;99.90
19555;DHT22;9924;50.828;6.440;2023-07-20T01:13:07;16.10;99.90
19555;DHT22;9924;50.828;6.440;2023-07-20T01:15:35;16.10;99.90
19555;DHT22;9924;50.828;6.440;2023-07-20T01:18:00;16.10;99.90
19555;DHT22;9924;50.828;6.440;2023-07-20T01:20:32;16.10;99.90
19555;DHT22;9924;50.828;6.440;2023-07-20T01:23:39;16.10;99.90
19555;DHT22;9924;50.828;6.440;2023-07-20T01:26:37;16.00;99.90
19555;DHT22;9924;50.828;6.440;2023-07-20T01:29:17;16.00;99.90
19555;DHT22;9924;50.828;6.440;2023-07-20T01:31:51;16.00;99.90
19555;DHT22;9924;50.828;6.440;2023-07-20T01:34:19;16.00;99.90
19555;DHT22;9924;50.828;6.440;2023-07-20T01:36:48;16.00;99.90
19555;DHT22;9924;50.828;6.440;2023-07-20T01:39:16;15.90;99.90
19555;DHT22;9924;50.828;6.440;2023-07-20T01:41:42;15.90;99.90
19555;DHT22;9924;50.828;6.440;2023-07-20T01:44:08;15.90;99.90
19555;DHT22;9924;50.828;6.440;2023-07-20T01:46:34;15.90;99.90
19555;DHT22;9924;50.828;6.440;2023-07-20T01:49:00;15.90;99.90
19555;DHT22;9924;50.828;6.440;2023-07-20T01:51:26;15.80;99.90
19555;DHT22;9924;50.828;6.440;2023-07-20T01:53:51;15.80;99.90
19555;DHT22;9924;50.828;6.440;2023-07-20T01:56:17;15.80;99.90
19555;DHT22;9924;50.828;6.440;2023-07-20T01:58:43;15.70;99.90
19555;DHT22;9924;50.828;6.440;2023-07-20T02:01:08;15.80;99.90
19555;DHT22;9924;50.828;6.440;2023-07-20T02:03:34;15.70;99.90
19555;DHT22;9924;50.828;6.440;2023-07-20T02:06:01;15.70;99.90
19555;DHT22;9924;50.828;6.440;2023-07-20T02:08:27;15.70;99.90
19555;DHT22;9924;50.828;6.440;2023-07-20T02:10:52;15.70;99.90
19555;DHT22;9924;50.828;6.440;2023-07-20T02:13:18;15.70;99.90
19555;DHT22;9924;50.828;6.440;2023-07-20T02:15:44;15.70;99.90
19555;DHT22;9924;50.828;6.440;2023-07-20T02:18:10;15.70;99.90
19555;DHT22;9924;50.828;6.440;2023-07-20T02:20:36;15.70;99.90
19555;DHT22;9924;50.828;6.440;2023-07-20T02:23:01;15.70;99.90
19555;DHT22;9924;50.828;6.440;2023-07-20T02:25:27;15.60;99.90
19555;DHT22;9924;50.828;6.440;2023-07-20T02:27:53;15.60;99.90
19555;DHT22;9924;50.828;6.440;2023-07-20T02:30:19;15.60;99.90
19555;DHT22;9924;50.828;6.440;2023-07-20T02:32:45;15.60;99.90
19555;DHT22;9924;50.828;6.440;2023-07-20T02:35:14;15.60;99.90
19555;DHT22;9924;50.828;6.440;2023-07-20T02:37:40;15.60;99.90
19555;DHT22;9924;50.828;6.440;2023-07-20T02:40:06;15.50;99.90
19555;DHT22;9924;50.828;6.440;2023-07-20T02:42:34;15.50;99.90
19555;DHT22;9924;50.828;6.440;2023-07-20T02:44:59;15.50;99.90
19555;DHT22;9924;50.828;6.440;2023-07-20T02:47:25;15.50;99.90
19555;DHT22;9924;50.828;6.440;2023-07-20T02:49:51;15.50;99.90
19555;DHT22;9924;50.828;6.440;2023-07-20T02:52:17;15.60;99.90
19555;DHT22;9924;50.828;6.440;2023-07-20T02:54:42;15.60;99.90
19555;DHT22;9924;50.828;6.440;2023-07-20T02:57:08;15.60;99.90
19555;DHT22;9924;50.828;6.440;2023-07-20T02:59:34;15.60;99.90
19555;DHT22;9924;50.828;6.440;2023-07-20T03:01:59;15.70;99.90
19555;DHT22;9924;50.828;6.440;2023-07-20T03:04:26;15.70;99.90
19555;DHT22;9924;50.828;6.440;2023-07-20T03:06:53;15.80;99.90
19555;DHT22;9924;50.828;6.440;2023-07-20T03:09:19;15.80;99.90
19555;DHT22;9924;50.828;6.440;2023-07-20T03:11:44;15.80;99.90
19555;DHT22;9924;50.828;6.440;2023-07-20T03:14:10;15.80;99.90
19555;DHT22;9924;50.828;6.440;2023-07-20T03:16:36;15.80;99.90
19555;DHT22;9924;50.828;6.440;2023-07-20T03:19:02;15.90;99.90
19555;DHT22;9924;50.828;6.440;2023-07-20T03:21:28;15.90;99.90
19555;DHT22;9924;50.828;6.440;2023-07-20T03:23:54;15.90;99.90
19555;DHT22;9924;50.828;6.440;2023-07-20T03:26:20;15.90;99.90
19555;DHT22;9924;50.828;6.440;2023-07-20T03:28:46;15.90;99.90
19555;DHT22;9924;50.828;6.440;2023-07-20T03:31:11;15.90;99.90
19555;DHT22;9924;50.828;6.440;2023-07-20T03:33:37;15.90;99.90
19555;DHT22;9924;50.828;6.440;2023-07-20T03:36:03;15.80;99.90
19555;DHT22;9924;50.828;6.440;2023-07-20T03:38:29;15.80;99.90
19555;DHT22;9924;50.828;6.440;2023-07-20T03:40:59;15.70;99.90
19555;DHT22;9924;50.828;6.440;2023-07-20T03:43:26;15.60;99.90
19555;DHT22;9924;50.828;6.440;2023-07-20T03:45:52;15.60;99.90
19555;DHT22;9924;50.828;6.440;2023-07-20T03:48:20;15.60;99.90
19555;DHT22;9924;50.828;6.440;2023-07-20T03:50:47;15.50;99.90
19555;DHT22;9924;50.828;6.440;2023-07-20T03:53:14;15.50;99.90
19555;DHT22;9924;50.828;6.440;2023-07-20T03:55:41;15.50;99.90
19555;DHT22;9924;50.828;6.440;2023-07-20T03:58:07;15.50;99.90
19555;DHT22;9924;50.828;6.440;2023-07-20T04:00:34;15.40;99.90
19555;DHT22;9924;50.828;6.440;2023-07-20T04:03:00;15.40;99.90
19555;DHT22;9924;50.828;6.440;2023-07-20T04:05:26;15.40;99.90
19555;DHT22;9924;50.828;6.440;2023-07-20T04:07:52;15.30;99.90
19555;DHT22;9924;50.828;6.440;2023-07-20T04:10:18;15.30;99.90
19555;DHT22;9924;50.828;6.440;2023-07-20T04:12:45;15.40;99.90
19555;DHT22;9924;50.828;6.440;2023-07-20T04:15:13;15.40;99.90
19555;DHT22;9924;50.828;6.440;2023-07-20T04:17:39;15.40;99.90
19555;DHT22;9924;50.828;6.440;2023-07-20T04:20:07;15.50;99.90
19555;DHT22;9924;50.828;6.440;2023-07-20T04:22:33;15.50;99.90
19555;DHT22;9924;50.828;6.440;2023-07-20T04:24:58;15.60;99.90
19555;DHT22;9924;50.828;6.440;2023-07-20T04:27:24;15.70;99.90
19555;DHT22;9924;50.828;6.440;2023-07-20T04:29:50;15.80;99.90
19555;DHT22;9924;50.828;6.440;2023-07-20T04:32:16;15.80;99.90
19555;DHT22;9924;50.828;6.440;2023-07-20T04:34:42;15.90;99.90
19555;DHT22;9924;50.828;6.440;2023-07-20T04:37:08;15.90;99.90
19555;DHT22;9924;50.828;6.440;2023-07-20T04:39:33;15.90;99.90
19555;DHT22;9924;50.828;6.440;2023-07-20T04:41:59;15.90;99.90
19555;DHT22;9924;50.828;6.440;2023-07-20T04:44:25;16.00;99.90
19555;DHT22;9924;50.828;6.440;2023-07-20T04:46:51;16.00;99.90
19555;DHT22;9924;50.828;6.440;2023-07-20T04:49:16;16.00;99.90
19555;DHT22;9924;50.828;6.440;2023-07-20T04:51:42;16.00;99.90
19555;DHT22;9924;50.828;6.440;2023-07-20T04:54:08;16.00;99.90
19555;DHT22;9924;50.828;6.440;2023-07-20T04:56:34;16.10;99.90
19555;DHT22;9924;50.828;6.440;2023-07-20T04:58:59;16.10;99.90
19555;DHT22;9924;50.828;6.440;2023-07-20T05:01:25;16.10;99.90
19555;DHT22;9924;50.828;6.440;2023-07-20T05:03:52;16.20;99.90
19555;DHT22;9924;50.828;6.440;2023-07-20T05:06:18;16.30;99.90
19555;DHT22;9924;50.828;6.440;2023-07-20T05:08:45;16.20;99.90
19555;DHT22;9924;50.828;6.440;2023-07-20T05:11:11;16.30;99.90
19555;DHT22;9924;50.828;6.440;2023-07-20T05:13:37;16.30;99.90
19555;DHT22;9924;50.828;6.440;2023-07-20T05:16:03;16.40;99.90
19555;DHT22;9924;50.828;6.440;2023-07-20T05:18:29;16.40;99.90
19555;DHT22;9924;50.828;6.440;2023-07-20T05:20:55;16.30;99.90
19555;DHT22;9924;50.828;6.440;2023-07-20T05:23:21;16.30;99.90
19555;DHT22;9924;50.828;6.440;2023-07-20T05:25:53;16.40;99.90
19555;DHT22;9924;50.828;6.440;2023-07-20T05:28:19;16.40;99.90
19555;DHT22;9924;50.828;6.440;2023-07-20T05:30:45;16.50;99.90
19555;DHT22;9924;50.828;6.440;2023-07-20T05:33:10;16.50;99.90
19555;DHT22;9924;50.828;6.440;2023-07-20T05:35:36;16.50;99.90
19555;DHT22;9924;50.828;6.440;2023-07-20T05:38:03;16.60;99.90
19555;DHT22;9924;50.828;6.440;2023-07-20T05:40:30;16.60;99.90
19555;DHT22;9924;50.828;6.440;2023-07-20T05:42:56;16.70;99.90
19555;DHT22;9924;50.828;6.440;2023-07-20T05:45:22;16.80;99.90
19555;DHT22;9924;50.828;6.440;2023-07-20T05:47:48;16.90;99.90
19555;DHT22;9924;50.828;6.440;2023-07-20T05:50:14;17.00;99.90
19555;DHT22;9924;50.828;6.440;2023-07-20T05:52:40;17.10;99.90
19555;DHT22;9924;50.828;6.440;2023-07-20T05:55:06;17.10;99.90
19555;DHT22;9924;50.828;6.440;2023-07-20T05:57:33;17.20;99.90
19555;DHT22;9924;50.828;6.440;2023-07-20T05:59:59;17.30;99.90
19555;DHT22;9924;50.828;6.440;2023-07-20T06:02:24;17.30;99.90
19555;DHT22;9924;50.828;6.440;2023-07-20T06:04:50;17.40;99.90
19555;DHT22;9924;50.828;6.440;2023-07-20T06:07:16;17.50;99.90
19555;DHT22;9924;50.828;6.440;2023-07-20T06:09:41;17.60;99.90
19555;DHT22;9924;50.828;6.440;2023-07-20T06:12:08;17.70;99.90
19555;DHT22;9924;50.828;6.440;2023-07-20T06:14:34;17.80;99.90
19555;DHT22;9924;50.828;6.440;2023-07-20T06:16:59;18.00;99.90
19555;DHT22;9924;50.828;6.440;2023-07-20T06:19:26;18.20;99.90
19555;DHT22;9924;50.828;6.440;2023-07-20T06:21:52;18.20;99.90
19555;DHT22;9924;50.828;6.440;2023-07-20T06:24:18;18.10;99.90
19555;DHT22;9924;50.828;6.440;2023-07-20T06:26:44;18.20;99.90
19555;DHT22;9924;50.828;6.440;2023-07-20T06:29:09;18.30;99.90
19555;DHT22;9924;50.828;6.440;2023-07-20T06:31:36;18.40;99.90
19555;DHT22;9924;50.828;6.440;2023-07-20T06:34:02;18.40;99.90
19555;DHT22;9924;50.828;6.440;2023-07-20T06:36:28;18.30;99.90
19555;DHT22;9924;50.828;6.440;2023-07-20T06:38:56;18.20;99.90
19555;DHT22;9924;50.828;6.440;2023-07-20T06:41:21;18.20;99.90
19555;DHT22;9924;50.828;6.440;2023-07-20T06:43:48;18.20;99.90
19555;DHT22;9924;50.828;6.440;2023-07-20T06:46:13;18.30;99.90
19555;DHT22;9924;50.828;6.440;2023-07-20T06:48:39;18.30;99.90
19555;DHT22;9924;50.828;6.440;2023-07-20T06:51:05;18.20;99.90
19555;DHT22;9924;50.828;6.440;2023-07-20T06:53:31;18.20;99.90
19555;DHT22;9924;50.828;6.440;2023-07-20T06:55:56;18.10;99.90
19555;DHT22;9924;50.828;6.440;2023-07-20T06:58:23;18.00;99.90
19555;DHT22;9924;50.828;6.440;2023-07-20T07:00:49;17.90;99.90
19555;DHT22;9924;50.828;6.440;2023-07-20T07:03:15;17.90;99.90
19555;DHT22;9924;50.828;6.440;2023-07-20T07:05:41;17.90;99.90
19555;DHT22;9924;50.828;6.440;2023-07-20T07:08:07;17.90;99.90
19555;DHT22;9924;50.828;6.440;2023-07-20T07:10:36;18.00;99.90
19555;DHT22;9924;50.828;6.440;2023-07-20T07:13:03;18.10;99.90
19555;DHT22;9924;50.828;6.440;2023-07-20T07:15:29;18.30;99.90
19555;DHT22;9924;50.828;6.440;2023-07-20T07:17:55;18.60;99.90
19555;DHT22;9924;50.828;6.440;2023-07-20T07:20:22;18.80;99.90
19555;DHT22;9924;50.828;6.440;2023-07-20T07:22:50;19.00;99.90
19555;DHT22;9924;50.828;6.440;2023-07-20T07:25:17;19.40;99.90
19555;DHT22;9924;50.828;6.440;2023-07-20T07:27:43;19.80;99.90
19555;DHT22;9924;50.828;6.440;2023-07-20T07:30:09;20.10;99.90
19555;DHT22;9924;50.828;6.440;2023-07-20T07:32:35;20.30;99.90
19555;DHT22;9924;50.828;6.440;2023-07-20T07:35:01;20.60;99.90
19555;DHT22;9924;50.828;6.440;2023-07-20T07:37:26;20.80;99.90
19555;DHT22;9924;50.828;6.440;2023-07-20T07:39:52;20.70;99.90
19555;DHT22;9924;50.828;6.440;2023-07-20T07:42:18;20.40;99.90
19555;DHT22;9924;50.828;6.440;2023-07-20T07:44:46;20.40;99.90
19555;DHT22;9924;50.828;6.440;2023-07-20T07:47:12;20.40;99.90
19555;DHT22;9924;50.828;6.440;2023-07-20T07:49:38;20.10;99.90
19555;DHT22;9924;50.828;6.440;2023-07-20T07:52:03;20.00;99.90
19555;DHT22;9924;50.828;6.440;2023-07-20T07:54:29;19.90;99.90
19555;DHT22;9924;50.828;6.440;2023-07-20T07:56:55;20.00;99.90
19555;DHT22;9924;50.828;6.440;2023-07-20T07:59:21;20.40;99.90
19555;DHT22;9924;50.828;6.440;2023-07-20T08:01:47;20.80;99.90
19555;DHT22;9924;50.828;6.440;2023-07-20T08:04:12;20.70;99.90
19555;DHT22;9924;50.828;6.440;2023-07-20T08:06:39;20.40;99.90
19555;DHT22;9924;50.828;6.440;2023-07-20T08:09:04;20.40;99.90
19555;DHT22;9924;50.828;6.440;2023-07-20T08:11:30;20.50;99.90
19555;DHT22;9924;50.828;6.440;2023-07-20T08:14:02;20.50;99.90
19555;DHT22;9924;50.828;6.440;2023-07-20T08:16:28;20.40;99.90
19555;DHT22;9924;50.828;6.440;2023-07-20T08:18:54;20.60;99.90
19555;DHT22;9924;50.828;6.440;2023-07-20T08:21:19;21.10;99.90
19555;DHT22;9924;50.828;6.440;2023-07-20T08:23:46;21.40;99.90
19555;DHT22;9924;50.828;6.440;2023-07-20T08:26:11;21.40;99.90
19555;DHT22;9924;50.828;6.440;2023-07-20T08:28:37;21.40;99.90
19555;DHT22;9924;50.828;6.440;2023-07-20T08:31:05;21.80;99.90
19555;DHT22;9924;50.828;6.440;2023-07-20T08:33:31;22.10;99.90
19555;DHT22;9924;50.828;6.440;2023-07-20T08:35:59;22.10;99.90
19555;DHT22;9924;50.828;6.440;2023-07-20T08:38:27;21.90;99.90
19555;DHT22;9924;50.828;6.440;2023-07-20T08:40:54;21.60;99.90
19555;DHT22;9924;50.828;6.440;2023-07-20T08:43:23;21.40;99.90
19555;DHT22;9924;50.828;6.440;2023-07-20T08:45:54;21.30;99.90
19555;DHT22;9924;50.828;6.440;2023-07-20T08:48:21;21.80;99.90
19555;DHT22;9924;50.828;6.440;2023-07-20T08:50:52;21.90;99.90
19555;DHT22;9924;50.828;6.440;2023-07-20T08:53:20;22.10;99.90
19555;DHT22;9924;50.828;6.440;2023-07-20T08:55:46;22.50;99.90
19555;DHT22;9924;50.828;6.440;2023-07-20T08:58:13;22.70;99.90
19555;DHT22;9924;50.828;6.440;2023-07-20T09:00:41;22.70;99.90
19555;DHT22;9924;50.828;6.440;2023-07-20T09:03:07;23.00;99.90
19555;DHT22;9924;50.828;6.440;2023-07-20T09:05:34;23.30;99.90
19555;DHT22;9924;50.828;6.440;2023-07-20T09:08:01;23.30;99.90
19555;DHT22;9924;50.828;6.440;2023-07-20T09:10:29;23.10;99.90
19555;DHT22;9924;50.828;6.440;2023-07-20T09:12:55;22.70;99.90
19555;DHT22;9924;50.828;6.440;2023-07-20T09:15:22;22.40;99.90
19555;DHT22;9924;50.828;6.440;2023-07-20T09:17:50;22.30;99.90
19555;DHT22;9924;50.828;6.440;2023-07-20T09:20:17;22.60;99.90
19555;DHT22;9924;50.828;6.440;2023-07-20T09:22:43;23.00;99.90
19555;DHT22;9924;50.828;6.440;2023-07-20T09:25:16;23.30;99.90
19555;DHT22;9924;50.828;6.440;2023-07-20T09:27:44;23.40;99.90
19555;DHT22;9924;50.828;6.440;2023-07-20T09:30:10;23.50;99.90
19555;DHT22;9924;50.828;6.440;2023-07-20T09:32:43;23.60;99.90
19555;DHT22;9924;50.828;6.440;2023-07-20T09:35:19;23.50;99.90
19555;DHT22;9924;50.828;6.440;2023-07-20T09:37:58;23.30;99.90
19555;DHT22;9924;50.828;6.440;2023-07-20T09:40:25;23.60;99.90
19555;DHT22;9924;50.828;6.440;2023-07-20T09:42:52;23.80;99.90
19555;DHT22;9924;50.828;6.440;2023-07-20T09:45:40;24.10;99.90
19555;DHT22;9924;50.828;6.440;2023-07-20T09:48:10;24.30;99.90
19555;DHT22;9924;50.828;6.440;2023-07-20T09:50:40;24.00;99.90
19555;DHT22;9924;50.828;6.440;2023-07-20T09:53:12;24.00;99.90
19555;DHT22;9924;50.828;6.440;2023-07-20T09:55:41;24.00;99.90
19555;DHT22;9924;50.828;6.440;2023-07-20T09:58:10;24.00;99.90
19555;DHT22;9924;50.828;6.440;2023-07-20T10:00:37;24.10;99.90
19555;DHT22;9924;50.828;6.440;2023-07-20T10:03:05;24.30;99.90
19555;DHT22;9924;50.828;6.440;2023-07-20T10:05:36;24.10;99.90
19555;DHT22;9924;50.828;6.440;2023-07-20T10:08:10;24.00;99.90
19555;DHT22;9924;50.828;6.440;2023-07-20T10:10:38;23.70;99.90
19555;DHT22;9924;50.828;6.440;2023-07-20T10:13:06;23.70;99.90
19555;DHT22;9924;50.828;6.440;2023-07-20T10:15:41;23.50;99.90
19555;DHT22;9924;50.828;6.440;2023-07-20T10:20:56;23.40;99.90
19555;DHT22;9924;50.828;6.440;2023-07-20T10:23:24;23.50;99.90
19555;DHT22;9924;50.828;6.440;2023-07-20T10:25:51;23.60;99.90
19555;DHT22;9924;50.828;6.440;2023-07-20T10:28:17;23.70;99.90
19555;DHT22;9924;50.828;6.440;2023-07-20T10:30:44;24.00;99.90
19555;DHT22;9924;50.828;6.440;2023-07-20T10:33:10;23.80;99.90
19555;DHT22;9924;50.828;6.440;2023-07-20T10:36:00;23.70;99.90
19555;DHT22;9924;50.828;6.440;2023-07-20T10:39:03;23.60;99.90
19555;DHT22;9924;50.828;6.440;2023-07-20T10:41:29;23.40;99.90
19555;DHT22;9924;50.828;6.440;2023-07-20T10:44:13;23.30;99.90
19555;DHT22;9924;50.828;6.440;2023-07-20T10:49:05;23.10;99.90
19555;DHT22;9924;50.828;6.440;2023-07-20T10:51:41;23.10;99.90
19555;DHT22;9924;50.828;6.440;2023-07-20T10:56:57;23.40;99.90
19555;DHT22;9924;50.828;6.440;2023-07-20T11:01:57;23.20;99.90
19555;DHT22;9924;50.828;6.440;2023-07-20T11:04:41;23.20;99.90
19555;DHT22;9924;50.828;6.440;2023-07-20T11:07:08;23.20;99.90
19555;DHT22;9924;50.828;6.440;2023-07-20T11:09:35;23.30;99.90
19555;DHT22;9924;50.828;6.440;2023-07-20T11:12:14;23.30;99.90
19555;DHT22;9924;50.828;6.440;2023-07-20T11:14:54;23.50;99.90
19555;DHT22;9924;50.828;6.440;2023-07-20T11:17:20;23.70;99.90
19555;DHT22;9924;50.828;6.440;2023-07-20T11:19:48;23.60;99.90
19555;DHT22;9924;50.828;6.440;2023-07-20T11:22:17;23.80;99.90
19555;DHT22;9924;50.828;6.440;2023-07-20T11:24:43;23.90;99.90
19555;DHT22;9924;50.828;6.440;2023-07-20T11:27:09;23.80;99.90
19555;DHT22;9924;50.828;6.440;2023-07-20T11:29:37;24.00;99.90
19555;DHT22;9924;50.828;6.440;2023-07-20T11:32:03;24.10;99.90
19555;DHT22;9924;50.828;6.440;2023-07-20T11:34:31;24.20;99.90
19555;DHT22;9924;50.828;6.440;2023-07-20T11:36:57;24.10;99.90
19555;DHT22;9924;50.828;6.440;2023-07-20T11:39:23;24.30;99.90
19555;DHT22;9924;50.828;6.440;2023-07-20T11:41:55;24.80;99.90
19555;DHT22;9924;50.828;6.440;2023-07-20T11:44:23;25.40;99.90
19555;DHT22;9924;50.828;6.440;2023-07-20T11:47:04;26.10;99.90
19555;DHT22;9924;50.828;6.440;2023-07-20T11:49:34;26.70;98.80
19555;DHT22;9924;50.828;6.440;2023-07-20T11:52:00;26.90;98.10
19555;DHT22;9924;50.828;6.440;2023-07-20T11:54:27;26.80;98.00
19555;DHT22;9924;50.828;6.440;2023-07-20T11:56:56;26.90;97.10
19555;DHT22;9924;50.828;6.440;2023-07-20T11:59:22;26.80;96.90
19555;DHT22;9924;50.828;6.440;2023-07-20T12:01:48;26.70;97.80
19555;DHT22;9924;50.828;6.440;2023-07-20T12:04:13;26.80;97.30
19555;DHT22;9924;50.828;6.440;2023-07-20T12:06:39;26.50;97.50
19555;DHT22;9924;50.828;6.440;2023-07-20T12:09:05;26.30;96.50
19555;DHT22;9924;50.828;6.440;2023-07-20T12:11:40;26.20;96.80
19555;DHT22;9924;50.828;6.440;2023-07-20T12:14:08;26.30;96.80
19555;DHT22;9924;50.828;6.440;2023-07-20T12:16:36;26.80;96.30
19555;DHT22;9924;50.828;6.440;2023-07-20T12:19:12;27.00;94.80
19555;DHT22;9924;50.828;6.440;2023-07-20T12:21:42;27.30;94.40
19555;DHT22;9924;50.828;6.440;2023-07-20T12:24:08;27.70;93.20
19555;DHT22;9924;50.828;6.440;2023-07-20T12:26:36;28.00;93.10
19555;DHT22;9924;50.828;6.440;2023-07-20T12:29:02;28.30;91.90
19555;DHT22;9924;50.828;6.440;2023-07-20T12:31:29;28.30;91.80
19555;DHT22;9924;50.828;6.440;2023-07-20T12:33:57;28.50;91.40
19555;DHT22;9924;50.828;6.440;2023-07-20T12:36:23;28.60;90.10
19555;DHT22;9924;50.828;6.440;2023-07-20T12:38:49;28.70;89.60
19555;DHT22;9924;50.828;6.440;2023-07-20T12:41:15;28.70;90.40
19555;DHT22;9924;50.828;6.440;2023-07-20T12:43:41;29.00;88.60
19555;DHT22;9924;50.828;6.440;2023-07-20T12:46:08;28.80;88.60
19555;DHT22;9924;50.828;6.440;2023-07-20T12:48:35;28.70;88.60
19555;DHT22;9924;50.828;6.440;2023-07-20T12:51:03;28.00;91.10
19555;DHT22;9924;50.828;6.440;2023-07-20T12:53:29;27.40;92.60
19555;DHT22;9924;50.828;6.440;2023-07-20T12:55:55;27.50;95.00
19555;DHT22;9924;50.828;6.440;2023-07-20T12:58:20;27.80;92.00
19555;DHT22;9924;50.828;6.440;2023-07-20T13:00:46;28.00;93.50
19555;DHT22;9924;50.828;6.440;2023-07-20T13:03:12;28.20;91.80
19555;DHT22;9924;50.828;6.440;2023-07-20T13:05:38;28.10;91.60
19555;DHT22;9924;50.828;6.440;2023-07-20T13:08:04;28.10;93.10
19555;DHT22;9924;50.828;6.440;2023-07-20T13:10:31;28.30;92.00
19555;DHT22;9924;50.828;6.440;2023-07-20T13:12:57;28.60;91.40
19555;DHT22;9924;50.828;6.440;2023-07-20T13:15:24;28.70;90.80
19555;DHT22;9924;50.828;6.440;2023-07-20T13:17:54;28.60;89.80
19555;DHT22;9924;50.828;6.440;2023-07-20T13:20:20;28.70;90.20
19555;DHT22;9924;50.828;6.440;2023-07-20T13:22:45;28.80;90.30
19555;DHT22;9924;50.828;6.440;2023-07-20T13:25:11;28.80;90.50
19555;DHT22;9924;50.828;6.440;2023-07-20T13:27:37;29.00;90.70
19555;DHT22;9924;50.828;6.440;2023-07-20T13:30:03;28.80;90.50
19555;DHT22;9924;50.828;6.440;2023-07-20T13:32:35;28.80;90.40
19555;DHT22;9924;50.828;6.440;2023-07-20T13:35:02;29.10;90.60
19555;DHT22;9924;50.828;6.440;2023-07-20T13:37:28;29.30;91.10
19555;DHT22;9924;50.828;6.440;2023-07-20T13:39:54;29.70;86.40
19555;DHT22;9924;50.828;6.440;2023-07-20T13:42:20;29.50;93.40
19555;DHT22;9924;50.828;6.440;2023-07-20T13:44:48;29.00;93.90
19555;DHT22;9924;50.828;6.440;2023-07-20T13:47:14;28.10;88.30
19555;DHT22;9924;50.828;6.440;2023-07-20T13:49:40;27.40;88.70
19555;DHT22;9924;50.828;6.440;2023-07-20T13:52:06;26.80;89.50
19555;DHT22;9924;50.828;6.440;2023-07-20T13:54:32;26.60;92.60
19555;DHT22;9924;50.828;6.440;2023-07-20T13:56:58;26.80;91.40
19555;DHT22;9924;50.828;6.440;2023-07-20T13:59:23;27.10;90.60
19555;DHT22;9924;50.828;6.440;2023-07-20T14:01:49;27.10;92.40
19555;DHT22;9924;50.828;6.440;2023-07-20T14:04:15;26.80;90.90
19555;DHT22;9924;50.828;6.440;2023-07-20T14:06:41;26.30;91.80
19555;DHT22;9924;50.828;6.440;2023-07-20T14:09:07;25.80;93.30
19555;DHT22;9924;50.828;6.440;2023-07-20T14:11:32;25.60;94.50
19555;DHT22;9924;50.828;6.440;2023-07-20T14:13:58;25.60;94.10
19555;DHT22;9924;50.828;6.440;2023-07-20T14:16:24;25.50;94.10
19555;DHT22;9924;50.828;6.440;2023-07-20T14:18:51;25.60;93.20
19555;DHT22;9924;50.828;6.440;2023-07-20T14:21:17;26.20;93.10
19555;DHT22;9924;50.828;6.440;2023-07-20T14:23:47;27.10;91.30
19555;DHT22;9924;50.828;6.440;2023-07-20T14:26:13;27.30;90.20
19555;DHT22;9924;50.828;6.440;2023-07-20T14:28:39;27.80;92.40
19555;DHT22;9924;50.828;6.440;2023-07-20T14:31:05;28.60;88.80
19555;DHT22;9924;50.828;6.440;2023-07-20T14:33:31;29.10;86.00
19555;DHT22;9924;50.828;6.440;2023-07-20T14:35:57;28.80;82.80
19555;DHT22;9924;50.828;6.440;2023-07-20T14:38:23;28.10;85.00
19555;DHT22;9924;50.828;6.440;2023-07-20T14:40:49;27.60;88.50
19555;DHT22;9924;50.828;6.440;2023-07-20T14:43:14;27.10;87.10
19555;DHT22;9924;50.828;6.440;2023-07-20T14:45:43;26.90;88.10
19555;DHT22;9924;50.828;6.440;2023-07-20T14:48:09;26.70;87.60
19555;DHT22;9924;50.828;6.440;2023-07-20T14:50:35;26.50;90.60
19555;DHT22;9924;50.828;6.440;2023-07-20T14:53:00;26.10;89.60
19555;DHT22;9924;50.828;6.440;2023-07-20T14:55:26;25.90;90.60
19555;DHT22;9924;50.828;6.440;2023-07-20T14:57:52;26.00;91.20
19555;DHT22;9924;50.828;6.440;2023-07-20T15:00:18;26.10;91.60
19555;DHT22;9924;50.828;6.440;2023-07-20T15:02:44;26.20;91.80
19555;DHT22;9924;50.828;6.440;2023-07-20T15:05:10;26.40;91.70
19555;DHT22;9924;50.828;6.440;2023-07-20T15:07:37;26.50;92.20
19555;DHT22;9924;50.828;6.440;2023-07-20T15:10:04;27.00;93.40
19555;DHT22;9924;50.828;6.440;2023-07-20T15:12:30;27.60;90.50
19555;DHT22;9924;50.828;6.440;2023-07-20T15:15:07;28.40;88.70
19555;DHT22;9924;50.828;6.440;2023-07-20T15:17:34;28.70;82.20
19555;DHT22;9924;50.828;6.440;2023-07-20T15:20:01;28.10;82.50
19555;DHT22;9924;50.828;6.440;2023-07-20T15:22:33;27.40;85.10
19555;DHT22;9924;50.828;6.440;2023-07-20T15:24:59;27.10;86.00
19555;DHT22;9924;50.828;6.440;2023-07-20T15:27:26;26.80;84.40
19555;DHT22;9924;50.828;6.440;2023-07-20T15:29:51;26.90;84.50
19555;DHT22;9924;50.828;6.440;2023-07-20T15:32:20;27.10;84.30
19555;DHT22;9924;50.828;6.440;2023-07-20T15:34:46;27.80;80.80
19555;DHT22;9924;50.828;6.440;2023-07-20T15:37:12;28.30;80.20
19555;DHT22;9924;50.828;6.440;2023-07-20T15:39:39;28.60;80.80
19555;DHT22;9924;50.828;6.440;2023-07-20T15:42:05;29.10;80.00
19555;DHT22;9924;50.828;6.440;2023-07-20T15:44:31;29.60;77.70
19555;DHT22;9924;50.828;6.440;2023-07-20T15:46:57;30.20;76.80
19555;DHT22;9924;50.828;6.440;2023-07-20T15:49:23;30.30;76.20
19555;DHT22;9924;50.828;6.440;2023-07-20T15:51:53;30.50;74.30
19555;DHT22;9924;50.828;6.440;2023-07-20T15:54:19;31.00;73.60
19555;DHT22;9924;50.828;6.440;2023-07-20T15:56:45;31.10;70.20